sensor_id;sensor_type;location;lat;lon;timestamp;pressure;altitude;pressure_sealevel;temperature
34807;BMP280;18310;55.586;12.286;2024-03-25T00:01:52;99829.69;;;12.42
34807;BMP280;18310;55.586;12.286;2024-03-25T00:04:53;99834.34;;;12.38
34807;BMP280;18310;55.586;12.286;2024-03-25T00:07:55;99833.53;;;12.38
34807;BMP280;18310;55.586;12.286;2024-03-25T00:10:56;99830.44;;;12.39
34807;BMP280;18310;55.586;12.286;2024-03-25T00:13:57;99833.59;;;12.41
34807;BMP280;18310;55.586;12.286;2024-03-25T00:17:00;99829.69;;;12.42
34807;BMP280;18310;55.586;12.286;2024-03-25T00:20:01;99835.53;;;12.41
34807;BMP280;18310;55.586;12.286;2024-03-25T00:23:02;99846.44;;;12.41
34807;BMP280;18310;55.586;12.286;2024-03-25T00:26:04;99843.69;;;12.44
34807;BMP280;18310;55.586;12.286;2024-03-25T00:29:05;99842.16;;;12.47
34807;BMP280;18310;55.586;12.286;2024-03-25T00:32:07;99845.28;;;12.45
34807;BMP280;18310;55.586;12.286;2024-03-25T00:35:09;99846.06;;;12.42
34807;BMP280;18310;55.586;12.286;2024-03-25T00:38:10;99847.66;;;12.43
34807;BMP280;18310;55.586;12.286;2024-03-25T00:41:11;99846.47;;;12.48
34807;BMP280;18310;55.586;12.286;2024-03-25T00:44:12;99852.72;;;12.52
34807;BMP280;18310;55.586;12.286;2024-03-25T00:47:14;99852.72;;;12.52
34807;BMP280;18310;55.586;12.286;2024-03-25T00:50:16;99856.59;;;12.47
34807;BMP280;18310;55.586;12.286;2024-03-25T00:53:17;99851.88;;;12.44
34807;BMP280;18310;55.586;12.286;2024-03-25T00:56:18;99853.88;;;12.44
34807;BMP280;18310;55.586;12.286;2024-03-25T00:59:19;99853.09;;;12.47
34807;BMP280;18310;55.586;12.286;2024-03-25T01:02:22;99853.88;;;12.47
34807;BMP280;18310;55.586;12.286;2024-03-25T01:05:23;99858.53;;;12.47
34807;BMP280;18310;55.586;12.286;2024-03-25T01:08:24;99862.84;;;12.48
34807;BMP280;18310;55.586;12.286;2024-03-25T01:11:25;99864.03;;;12.50
34807;BMP280;18310;55.586;12.286;2024-03-25T01:14:26;99868.72;;;12.53
34807;BMP280;18310;55.586;12.286;2024-03-25T01:17:29;99867.94;;;12.53
34807;BMP280;18310;55.586;12.286;2024-03-25T01:20:30;99869.88;;;12.52
34807;BMP280;18310;55.586;12.286;2024-03-25T01:23:31;99870.28;;;12.51
34807;BMP280;18310;55.586;12.286;2024-03-25T01:26:33;99876.13;;;12.49
34807;BMP280;18310;55.586;12.286;2024-03-25T01:29:34;99869.09;;;12.48
34807;BMP280;18310;55.586;12.286;2024-03-25T01:32:36;99871.81;;;12.52
34807;BMP280;18310;55.586;12.286;2024-03-25T01:35:37;99878.84;;;12.53
34807;BMP280;18310;55.586;12.286;2024-03-25T01:38:38;99867.56;;;12.51
34807;BMP280;18310;55.586;12.286;2024-03-25T01:41:40;99878.84;;;12.49
34807;BMP280;18310;55.586;12.286;2024-03-25T01:44:41;99880.75;;;12.45
34807;BMP280;18310;55.586;12.286;2024-03-25T01:47:43;99883.91;;;12.44
34807;BMP280;18310;55.586;12.286;2024-03-25T01:50:45;99889.72;;;12.46
34807;BMP280;18310;55.586;12.286;2024-03-25T01:53:47;99878.06;;;12.49
34807;BMP280;18310;55.586;12.286;2024-03-25T01:56:48;99892.88;;;12.51
34807;BMP280;18310;55.586;12.286;2024-03-25T01:59:50;99892.13;;;12.54
34807;BMP280;18310;55.586;12.286;2024-03-25T02:02:53;99898.38;;;12.55
34807;BMP280;18310;55.586;12.286;2024-03-25T02:05:57;99883.53;;;12.52
34807;BMP280;18310;55.586;12.286;2024-03-25T02:08:59;99893.66;;;12.52
34807;BMP280;18310;55.586;12.286;2024-03-25T02:12:00;99900.69;;;12.49
34807;BMP280;18310;55.586;12.286;2024-03-25T02:15:02;99904.56;;;12.48
34807;BMP280;18310;55.586;12.286;2024-03-25T02:18:05;99909.25;;;12.48
34807;BMP280;18310;55.586;12.286;2024-03-25T02:21:07;99905.75;;;12.44
34807;BMP280;18310;55.586;12.286;2024-03-25T02:24:09;99912.34;;;12.43
34807;BMP280;18310;55.586;12.286;2024-03-25T02:27:12;99911.94;;;12.41
34807;BMP280;18310;55.586;12.286;2024-03-25T02:30:14;99918.91;;;12.35
34807;BMP280;18310;55.586;12.286;2024-03-25T02:33:15;99919.69;;;12.32
34807;BMP280;18310;55.586;12.286;2024-03-25T02:36:16;99922.38;;;12.28
34807;BMP280;18310;55.586;12.286;2024-03-25T02:39:18;99926.28;;;12.27
34807;BMP280;18310;55.586;12.286;2024-03-25T02:42:21;99930.53;;;12.25
34807;BMP280;18310;55.586;12.286;2024-03-25T02:45:22;99924.69;;;12.23
34807;BMP280;18310;55.586;12.286;2024-03-25T02:48:24;99928.22;;;12.27
34807;BMP280;18310;55.586;12.286;2024-03-25T02:51:25;99934.44;;;12.27
34807;BMP280;18310;55.586;12.286;2024-03-25T02:54:26;99932.94;;;12.30
34807;BMP280;18310;55.586;12.286;2024-03-25T02:57:28;99939.94;;;12.34
34807;BMP280;18310;55.586;12.286;2024-03-25T03:00:30;99938.78;;;12.35
34807;BMP280;18310;55.586;12.286;2024-03-25T03:03:31;99938.84;;;12.42
34807;BMP280;18310;55.586;12.286;2024-03-25T03:06:32;99943.94;;;12.44
34807;BMP280;18310;55.586;12.286;2024-03-25T03:09:33;99947.81;;;12.43
34807;BMP280;18310;55.586;12.286;2024-03-25T03:12:35;99952.09;;;12.40
34807;BMP280;18310;55.586;12.286;2024-03-25T03:15:36;99963.00;;;12.40
34807;BMP280;18310;55.586;12.286;2024-03-25T03:18:39;99961.06;;;12.41
34807;BMP280;18310;55.586;12.286;2024-03-25T03:21:40;99969.59;;;12.39
34807;BMP280;18310;55.586;12.286;2024-03-25T03:24:41;99975.03;;;12.36
34807;BMP280;18310;55.586;12.286;2024-03-25T03:27:44;99975.03;;;12.36
34807;BMP280;18310;55.586;12.286;2024-03-25T03:30:46;99978.16;;;12.34
34807;BMP280;18310;55.586;12.286;2024-03-25T03:33:48;99981.25;;;12.33
34807;BMP280;18310;55.586;12.286;2024-03-25T03:36:49;99976.16;;;12.28
34807;BMP280;18310;55.586;12.286;2024-03-25T03:39:50;99989.44;;;12.29
34807;BMP280;18310;55.586;12.286;2024-03-25T03:42:53;99993.31;;;12.28
34807;BMP280;18310;55.586;12.286;2024-03-25T03:45:54;99991.75;;;12.27
34807;BMP280;18310;55.586;12.286;2024-03-25T03:48:55;99990.16;;;12.26
34807;BMP280;18310;55.586;12.286;2024-03-25T03:51:56;99986.63;;;12.22
34807;BMP280;18310;55.586;12.286;2024-03-25T03:54:57;99992.06;;;12.19
34807;BMP280;18310;55.586;12.286;2024-03-25T03:58:00;99990.50;;;12.18
34807;BMP280;18310;55.586;12.286;2024-03-25T04:01:02;99992.84;;;12.16
34807;BMP280;18310;55.586;12.286;2024-03-25T04:04:03;100001.41;;;12.18
34807;BMP280;18310;55.586;12.286;2024-03-25T04:07:04;99995.13;;;12.13
34807;BMP280;18310;55.586;12.286;2024-03-25T04:10:06;100006.00;;;12.10
34807;BMP280;18310;55.586;12.286;2024-03-25T04:13:09;100011.81;;;12.05
34807;BMP280;18310;55.586;12.286;2024-03-25T04:16:10;100015.66;;;12.00
34807;BMP280;18310;55.586;12.286;2024-03-25T04:19:11;100013.28;;;11.95
34807;BMP280;18310;55.586;12.286;2024-03-25T04:22:12;100014.78;;;11.89
34807;BMP280;18310;55.586;12.286;2024-03-25T04:25:13;100016.28;;;11.83
34807;BMP280;18310;55.586;12.286;2024-03-25T04:28:16;100013.19;;;11.85
34807;BMP280;18310;55.586;12.286;2024-03-25T04:31:18;100019.03;;;11.87
34807;BMP280;18310;55.586;12.286;2024-03-25T04:34:19;100017.09;;;11.87
34807;BMP280;18310;55.586;12.286;2024-03-25T04:37:20;100029.56;;;11.85
34807;BMP280;18310;55.586;12.286;2024-03-25T04:40:21;100036.53;;;11.82
34807;BMP280;18310;55.586;12.286;2024-03-25T04:43:24;100029.47;;;11.78
34807;BMP280;18310;55.586;12.286;2024-03-25T04:46:26;100044.31;;;11.80
34807;BMP280;18310;55.586;12.286;2024-03-25T04:49:27;100036.94;;;11.84
34807;BMP280;18310;55.586;12.286;2024-03-25T04:52:28;100037.38;;;11.86
34807;BMP280;18310;55.586;12.286;2024-03-25T04:55:29;100042.44;;;11.88
34807;BMP280;18310;55.586;12.286;2024-03-25T04:58:32;100044.75;;;11.89
34807;BMP280;18310;55.586;12.286;2024-03-25T05:01:33;100054.16;;;11.92
34807;BMP280;18310;55.586;12.286;2024-03-25T05:04:34;100062.69;;;11.90
34807;BMP280;18310;55.586;12.286;2024-03-25T05:07:35;100064.25;;;11.88
34807;BMP280;18310;55.586;12.286;2024-03-25T05:10:36;100076.31;;;11.87
34807;BMP280;18310;55.586;12.286;2024-03-25T05:13:39;100080.22;;;11.86
34807;BMP280;18310;55.586;12.286;2024-03-25T05:16:40;100073.19;;;11.85
34807;BMP280;18310;55.586;12.286;2024-03-25T05:19:41;100082.16;;;11.89
34807;BMP280;18310;55.586;12.286;2024-03-25T05:22:42;100075.59;;;11.93
34807;BMP280;18310;55.586;12.286;2024-03-25T05:25:43;100079.50;;;11.96
34807;BMP280;18310;55.586;12.286;2024-03-25T05:28:46;100086.97;;;12.02
34807;BMP280;18310;55.586;12.286;2024-03-25T05:31:56;100085.09;;;12.10
34807;BMP280;18310;55.586;12.286;2024-03-25T05:34:57;100091.44;;;12.18
34807;BMP280;18310;55.586;12.286;2024-03-25T05:37:58;100088.75;;;12.21
34807;BMP280;18310;55.586;12.286;2024-03-25T05:40:59;100082.50;;;12.24
34807;BMP280;18310;55.586;12.286;2024-03-25T05:44:02;100092.34;;;12.32
34807;BMP280;18310;55.586;12.286;2024-03-25T05:47:03;100093.94;;;12.37
34807;BMP280;18310;55.586;12.286;2024-03-25T05:50:05;100094.41;;;12.42
34807;BMP280;18310;55.586;12.286;2024-03-25T05:53:06;100101.06;;;12.48
34807;BMP280;18310;55.586;12.286;2024-03-25T05:56:07;100096.84;;;12.54
34807;BMP280;18310;55.586;12.286;2024-03-25T05:59:10;100096.06;;;12.57
34807;BMP280;18310;55.586;12.286;2024-03-25T06:02:11;100107.81;;;12.62
34807;BMP280;18310;55.586;12.286;2024-03-25T06:05:13;100104.72;;;12.67
34807;BMP280;18310;55.586;12.286;2024-03-25T06:08:14;100116.03;;;12.69
34807;BMP280;18310;55.586;12.286;2024-03-25T06:11:15;100123.50;;;12.72
34807;BMP280;18310;55.586;12.286;2024-03-25T06:14:18;100121.16;;;12.74
34807;BMP280;18310;55.586;12.286;2024-03-25T06:17:19;100124.66;;;12.74
34807;BMP280;18310;55.586;12.286;2024-03-25T06:20:20;100127.44;;;12.78
34807;BMP280;18310;55.586;12.286;2024-03-25T06:23:22;100132.47;;;12.79
34807;BMP280;18310;55.586;12.286;2024-03-25T06:26:24;100133.69;;;12.82
34807;BMP280;18310;55.586;12.286;2024-03-25T06:29:26;100138.00;;;12.83
34807;BMP280;18310;55.586;12.286;2024-03-25T06:32:27;100148.94;;;12.83
34807;BMP280;18310;55.586;12.286;2024-03-25T06:35:29;100151.41;;;13.05
34807;BMP280;18310;55.586;12.286;2024-03-25T06:38:30;100164.06;;;13.24
34807;BMP280;18310;55.586;12.286;2024-03-25T06:41:31;100167.22;;;13.33
34807;BMP280;18310;55.586;12.286;2024-03-25T06:44:34;100173.94;;;13.46
34807;BMP280;18310;55.586;12.286;2024-03-25T06:47:35;100174.44;;;13.73
34807;BMP280;18310;55.586;12.286;2024-03-25T06:50:36;100180.06;;;14.05
34807;BMP280;18310;55.586;12.286;2024-03-25T06:53:37;100187.50;;;14.26
34807;BMP280;18310;55.586;12.286;2024-03-25T06:56:39;100186.72;;;14.43
34807;BMP280;18310;55.586;12.286;2024-03-25T06:59:41;100184.06;;;14.71
34807;BMP280;18310;55.586;12.286;2024-03-25T07:02:42;100187.94;;;14.91
34807;BMP280;18310;55.586;12.286;2024-03-25T07:05:44;100187.91;;;15.16
34807;BMP280;18310;55.586;12.286;2024-03-25T07:08:46;100196.50;;;15.18
34807;BMP280;18310;55.586;12.286;2024-03-25T07:11:47;100195.75;;;15.07
34807;BMP280;18310;55.586;12.286;2024-03-25T07:14:49;100197.31;;;15.05
34807;BMP280;18310;55.586;12.286;2024-03-25T07:17:50;100205.94;;;15.00
34807;BMP280;18310;55.586;12.286;2024-03-25T07:20:51;100204.78;;;14.97
34807;BMP280;18310;55.586;12.286;2024-03-25T07:23:52;100209.06;;;14.98
34807;BMP280;18310;55.586;12.286;2024-03-25T07:26:54;100215.34;;;14.95
34807;BMP280;18310;55.586;12.286;2024-03-25T07:29:57;100217.28;;;14.87
34807;BMP280;18310;55.586;12.286;2024-03-25T07:32:58;100223.16;;;14.79
34807;BMP280;18310;55.586;12.286;2024-03-25T07:36:00;100227.84;;;14.68
34807;BMP280;18310;55.586;12.286;2024-03-25T07:39:01;100227.47;;;14.62
34807;BMP280;18310;55.586;12.286;2024-03-25T07:42:03;100227.84;;;14.57
34807;BMP280;18310;55.586;12.286;2024-03-25T07:45:06;100225.88;;;14.51
34807;BMP280;18310;55.586;12.286;2024-03-25T07:48:08;100230.56;;;14.50
34807;BMP280;18310;55.586;12.286;2024-03-25T07:51:09;100231.75;;;14.45
34807;BMP280;18310;55.586;12.286;2024-03-25T07:54:10;100232.53;;;14.39
34807;BMP280;18310;55.586;12.286;2024-03-25T07:57:11;100237.19;;;14.35
34807;BMP280;18310;55.586;12.286;2024-03-25T08:00:14;100231.72;;;14.38
34807;BMP280;18310;55.586;12.286;2024-03-25T08:03:16;100232.94;;;14.48
34807;BMP280;18310;55.586;12.286;2024-03-25T08:06:17;100241.91;;;14.63
34807;BMP280;18310;55.586;12.286;2024-03-25T08:09:19;100241.97;;;14.80
34807;BMP280;18310;55.586;12.286;2024-03-25T08:12:20;100240.78;;;14.99
34807;BMP280;18310;55.586;12.286;2024-03-25T08:15:22;100241.53;;;15.21
34807;BMP280;18310;55.586;12.286;2024-03-25T08:18:23;100250.94;;;15.34
34807;BMP280;18310;55.586;12.286;2024-03-25T08:21:24;100254.44;;;15.45
34807;BMP280;18310;55.586;12.286;2024-03-25T08:24:26;100249.72;;;15.53
34807;BMP280;18310;55.586;12.286;2024-03-25T08:27:27;100256.00;;;15.50
34807;BMP280;18310;55.586;12.286;2024-03-25T08:30:30;100266.97;;;15.42
34807;BMP280;18310;55.586;12.286;2024-03-25T08:33:31;100262.28;;;15.32
34807;BMP280;18310;55.586;12.286;2024-03-25T08:36:32;100265.06;;;15.29
34807;BMP280;18310;55.586;12.286;2024-03-25T08:39:33;100268.16;;;15.24
34807;BMP280;18310;55.586;12.286;2024-03-25T08:42:35;100268.97;;;15.14
34807;BMP280;18310;55.586;12.286;2024-03-25T08:45:37;100268.22;;;15.06
34807;BMP280;18310;55.586;12.286;2024-03-25T08:48:38;100271.31;;;15.01
34807;BMP280;18310;55.586;12.286;2024-03-25T08:51:39;100272.50;;;15.04
34807;BMP280;18310;55.586;12.286;2024-03-25T08:54:59;100268.97;;;15.00
34807;BMP280;18310;55.586;12.286;2024-03-25T08:58:20;100276.41;;;14.92
34807;BMP280;18310;55.586;12.286;2024-03-25T09:01:43;100273.28;;;14.93
34807;BMP280;18310;55.586;12.286;2024-03-25T09:05:05;100269.75;;;14.97
34807;BMP280;18310;55.586;12.286;2024-03-25T09:08:27;100275.22;;;15.04
34807;BMP280;18310;55.586;12.286;2024-03-25T09:11:48;100277.19;;;15.10
34807;BMP280;18310;55.586;12.286;2024-03-25T09:15:10;100270.91;;;15.13
34807;BMP280;18310;55.586;12.286;2024-03-25T09:18:32;100271.69;;;15.21
34807;BMP280;18310;55.586;12.286;2024-03-25T09:21:33;100276.03;;;15.29
34807;BMP280;18310;55.586;12.286;2024-03-25T09:24:34;100282.25;;;15.43
34807;BMP280;18310;55.586;12.286;2024-03-25T09:27:36;100280.25;;;15.58
34807;BMP280;18310;55.586;12.286;2024-03-25T09:30:37;100283.34;;;15.74
34807;BMP280;18310;55.586;12.286;2024-03-25T09:33:40;100284.09;;;15.85
34807;BMP280;18310;55.586;12.286;2024-03-25T09:36:41;100289.59;;;15.89
34807;BMP280;18310;55.586;12.286;2024-03-25T09:39:42;100282.88;;;15.90
34807;BMP280;18310;55.586;12.286;2024-03-25T09:42:47;100296.66;;;15.86
34807;BMP280;18310;55.586;12.286;2024-03-25T09:45:49;100289.56;;;15.92
34807;BMP280;18310;55.586;12.286;2024-03-25T09:48:53;100289.91;;;16.02
34807;BMP280;18310;55.586;12.286;2024-03-25T09:51:54;100289.84;;;16.12
34807;BMP280;18310;55.586;12.286;2024-03-25T09:54:56;100296.91;;;16.20
34807;BMP280;18310;55.586;12.286;2024-03-25T09:57:58;100299.59;;;16.27
34807;BMP280;18310;55.586;12.286;2024-03-25T10:01:00;100298.03;;;16.26
34807;BMP280;18310;55.586;12.286;2024-03-25T10:04:03;100316.50;;;16.22
34807;BMP280;18310;55.586;12.286;2024-03-25T10:07:04;100312.25;;;16.11
34807;BMP280;18310;55.586;12.286;2024-03-25T10:10:06;100316.22;;;15.99
34807;BMP280;18310;55.586;12.286;2024-03-25T10:13:07;100322.94;;;15.87
34807;BMP280;18310;55.586;12.286;2024-03-25T10:16:09;100325.69;;;15.77
34807;BMP280;18310;55.586;12.286;2024-03-25T10:19:11;100328.81;;;15.68
34807;BMP280;18310;55.586;12.286;2024-03-25T10:22:12;100334.72;;;15.67
34807;BMP280;18310;55.586;12.286;2024-03-25T10:25:23;100336.69;;;15.63
34807;BMP280;18310;55.586;12.286;2024-03-25T10:28:26;100333.19;;;15.44
34807;BMP280;18310;55.586;12.286;2024-03-25T10:31:27;100351.59;;;15.37
34807;BMP280;18310;55.586;12.286;2024-03-25T10:34:30;100341.00;;;15.32
34807;BMP280;18310;55.586;12.286;2024-03-25T10:37:31;100349.25;;;15.39
34807;BMP280;18310;55.586;12.286;2024-03-25T10:40:34;100353.94;;;15.46
34807;BMP280;18310;55.586;12.286;2024-03-25T10:43:35;100354.31;;;15.48
34807;BMP280;18310;55.586;12.286;2024-03-25T10:46:38;100357.06;;;15.48
34807;BMP280;18310;55.586;12.286;2024-03-25T10:49:46;100355.50;;;15.47
34807;BMP280;18310;55.586;12.286;2024-03-25T10:52:50;100344.53;;;15.50
34807;BMP280;18310;55.586;12.286;2024-03-25T10:55:54;100357.47;;;15.53
34807;BMP280;18310;55.586;12.286;2024-03-25T10:58:55;100351.59;;;15.62
34807;BMP280;18310;55.586;12.286;2024-03-25T11:01:57;100358.97;;;15.79
34807;BMP280;18310;55.586;12.286;2024-03-25T11:04:59;100355.06;;;15.94
34807;BMP280;18310;55.586;12.286;2024-03-25T11:08:10;100350.69;;;16.11
34807;BMP280;18310;55.586;12.286;2024-03-25T11:11:11;100348.69;;;16.18
34807;BMP280;18310;55.586;12.286;2024-03-25T11:14:15;100345.94;;;16.18
34807;BMP280;18310;55.586;12.286;2024-03-25T11:17:16;100347.47;;;16.26
34807;BMP280;18310;55.586;12.286;2024-03-25T11:20:20;100355.31;;;16.35
34807;BMP280;18310;55.586;12.286;2024-03-25T11:23:21;100349.81;;;16.35
34807;BMP280;18310;55.586;12.286;2024-03-25T11:26:24;100357.63;;;16.36
34807;BMP280;18310;55.586;12.286;2024-03-25T11:29:26;100358.00;;;16.46
34807;BMP280;18310;55.586;12.286;2024-03-25T11:32:27;100357.09;;;16.59
34807;BMP280;18310;55.586;12.286;2024-03-25T11:35:36;100354.31;;;16.73
34807;BMP280;18310;55.586;12.286;2024-03-25T11:38:38;100356.94;;;16.84
34807;BMP280;18310;55.586;12.286;2024-03-25T11:41:39;100346.28;;;16.97
34807;BMP280;18310;55.586;12.286;2024-03-25T11:44:41;100346.59;;;17.06
34807;BMP280;18310;55.586;12.286;2024-03-25T11:47:42;100356.31;;;17.17
34807;BMP280;18310;55.586;12.286;2024-03-25T11:50:46;100349.59;;;17.25
34807;BMP280;18310;55.586;12.286;2024-03-25T11:53:47;100351.09;;;17.30
34807;BMP280;18310;55.586;12.286;2024-03-25T11:56:49;100355.91;;;17.22
34807;BMP280;18310;55.586;12.286;2024-03-25T11:59:51;100359.13;;;17.10
34807;BMP280;18310;55.586;12.286;2024-03-25T12:02:52;100356.41;;;17.07
34807;BMP280;18310;55.586;12.286;2024-03-25T12:05:55;100351.69;;;17.07
34807;BMP280;18310;55.586;12.286;2024-03-25T12:08:56;100359.94;;;17.07
34807;BMP280;18310;55.586;12.286;2024-03-25T12:11:57;100357.97;;;17.04
34807;BMP280;18310;55.586;12.286;2024-03-25T12:14:58;100358.09;;;16.90
34807;BMP280;18310;55.586;12.286;2024-03-25T12:18:00;100355.84;;;16.74
34807;BMP280;18310;55.586;12.286;2024-03-25T12:21:04;100360.63;;;16.60
34807;BMP280;18310;55.586;12.286;2024-03-25T12:24:06;100358.34;;;16.51
34807;BMP280;18310;55.586;12.286;2024-03-25T12:27:07;100358.78;;;16.46
34807;BMP280;18310;55.586;12.286;2024-03-25T12:30:10;100364.28;;;16.39
34807;BMP280;18310;55.586;12.286;2024-03-25T12:33:11;100362.34;;;16.36
34807;BMP280;18310;55.586;12.286;2024-03-25T12:36:14;100371.00;;;16.34
34807;BMP280;18310;55.586;12.286;2024-03-25T12:39:15;100366.69;;;16.30
34807;BMP280;18310;55.586;12.286;2024-03-25T12:42:16;100367.84;;;16.32
34807;BMP280;18310;55.586;12.286;2024-03-25T12:45:18;100372.16;;;16.33
34807;BMP280;18310;55.586;12.286;2024-03-25T12:48:19;100368.25;;;16.34
34807;BMP280;18310;55.586;12.286;2024-03-25T12:51:22;100379.63;;;16.33
34807;BMP280;18310;55.586;12.286;2024-03-25T12:54:23;100385.94;;;16.26
34807;BMP280;18310;55.586;12.286;2024-03-25T12:57:24;100389.09;;;16.18
34807;BMP280;18310;55.586;12.286;2024-03-25T13:00:25;100379.31;;;16.10
34807;BMP280;18310;55.586;12.286;2024-03-25T13:03:26;100386.41;;;15.97
34807;BMP280;18310;55.586;12.286;2024-03-25T13:06:30;100382.91;;;15.82
34807;BMP280;18310;55.586;12.286;2024-03-25T13:09:31;100397.81;;;15.67
34807;BMP280;18310;55.586;12.286;2024-03-25T13:12:32;100387.28;;;15.51
34807;BMP280;18310;55.586;12.286;2024-03-25T13:15:34;100392.34;;;15.42
34807;BMP280;18310;55.586;12.286;2024-03-25T13:18:35;100396.25;;;15.37
34807;BMP280;18310;55.586;12.286;2024-03-25T13:21:37;100394.31;;;15.41
34807;BMP280;18310;55.586;12.286;2024-03-25T13:24:40;100388.44;;;15.43
34807;BMP280;18310;55.586;12.286;2024-03-25T13:27:41;100395.50;;;15.51
34807;BMP280;18310;55.586;12.286;2024-03-25T13:30:43;100397.81;;;15.56
34807;BMP280;18310;55.586;12.286;2024-03-25T13:33:44;100396.25;;;15.59
34807;BMP280;18310;55.586;12.286;2024-03-25T13:36:46;100402.13;;;15.61
34807;BMP280;18310;55.586;12.286;2024-03-25T13:39:47;100399.00;;;15.55
34807;BMP280;18310;55.586;12.286;2024-03-25T13:42:49;100392.34;;;15.53
34807;BMP280;18310;55.586;12.286;2024-03-25T13:45:50;100391.97;;;15.51
34807;BMP280;18310;55.586;12.286;2024-03-25T13:48:51;100394.69;;;15.43
34807;BMP280;18310;55.586;12.286;2024-03-25T13:51:56;100392.72;;;15.40
34807;BMP280;18310;55.586;12.286;2024-03-25T13:54:58;100394.72;;;15.40
34807;BMP280;18310;55.586;12.286;2024-03-25T13:57:59;100397.03;;;15.41
34807;BMP280;18310;55.586;12.286;2024-03-25T14:01:00;100390.34;;;15.46
34807;BMP280;18310;55.586;12.286;2024-03-25T14:04:01;100393.09;;;15.46
34807;BMP280;18310;55.586;12.286;2024-03-25T14:07:04;100389.19;;;15.43
34807;BMP280;18310;55.586;12.286;2024-03-25T14:10:06;100390.78;;;15.48
34807;BMP280;18310;55.586;12.286;2024-03-25T14:13:07;100386.06;;;15.56
34807;BMP280;18310;55.586;12.286;2024-03-25T14:16:08;100395.44;;;15.69
34807;BMP280;18310;55.586;12.286;2024-03-25T14:19:10;100387.59;;;15.81
34807;BMP280;18310;55.586;12.286;2024-03-25T14:22:12;100388.41;;;15.89
34807;BMP280;18310;55.586;12.286;2024-03-25T14:25:15;100382.53;;;15.83
34807;BMP280;18310;55.586;12.286;2024-03-25T14:28:16;100380.56;;;15.87
34807;BMP280;18310;55.586;12.286;2024-03-25T14:31:17;100380.53;;;15.95
34807;BMP280;18310;55.586;12.286;2024-03-25T14:34:18;100373.06;;;16.06
34807;BMP280;18310;55.586;12.286;2024-03-25T14:37:21;100371.47;;;16.08
34807;BMP280;18310;55.586;12.286;2024-03-25T14:40:22;100371.13;;;15.99
34807;BMP280;18310;55.586;12.286;2024-03-25T14:43:23;100373.09;;;15.84
34807;BMP280;18310;55.586;12.286;2024-03-25T14:46:24;100373.09;;;15.74
34807;BMP280;18310;55.586;12.286;2024-03-25T14:49:26;100386.03;;;15.70
34807;BMP280;18310;55.586;12.286;2024-03-25T14:52:28;100380.19;;;15.64
34807;BMP280;18310;55.586;12.286;2024-03-25T14:55:30;100385.31;;;15.62
34807;BMP280;18310;55.586;12.286;2024-03-25T14:58:31;100395.47;;;15.65
34807;BMP280;18310;55.586;12.286;2024-03-25T15:01:32;100387.63;;;15.67
34807;BMP280;18310;55.586;12.286;2024-03-25T15:04:33;100388.78;;;15.70
34807;BMP280;18310;55.586;12.286;2024-03-25T15:07:36;100384.88;;;15.71
34807;BMP280;18310;55.586;12.286;2024-03-25T15:10:37;100387.25;;;15.72
34807;BMP280;18310;55.586;12.286;2024-03-25T15:13:38;100386.44;;;15.72
34807;BMP280;18310;55.586;12.286;2024-03-25T15:16:39;100391.56;;;15.73
34807;BMP280;18310;55.586;12.286;2024-03-25T15:19:40;100390.34;;;15.74
34807;BMP280;18310;55.586;12.286;2024-03-25T15:22:43;100384.88;;;15.71
34807;BMP280;18310;55.586;12.286;2024-03-25T15:25:45;100381.72;;;15.69
34807;BMP280;18310;55.586;12.286;2024-03-25T15:28:47;100382.13;;;15.71
34807;BMP280;18310;55.586;12.286;2024-03-25T15:31:48;100380.97;;;15.72
34807;BMP280;18310;55.586;12.286;2024-03-25T15:34:49;100385.63;;;15.68
34807;BMP280;18310;55.586;12.286;2024-03-25T15:37:51;100379.78;;;15.69
34807;BMP280;18310;55.586;12.286;2024-03-25T15:40:52;100389.19;;;15.75
34807;BMP280;18310;55.586;12.286;2024-03-25T15:43:54;100375.47;;;15.75
34807;BMP280;18310;55.586;12.286;2024-03-25T15:46:55;100377.03;;;15.83
34807;BMP280;18310;55.586;12.286;2024-03-25T15:49:56;100388.41;;;15.82
34807;BMP280;18310;55.586;12.286;2024-03-25T15:52:59;100384.47;;;15.83
34807;BMP280;18310;55.586;12.286;2024-03-25T15:56:00;100386.06;;;15.84
34807;BMP280;18310;55.586;12.286;2024-03-25T15:59:01;100385.66;;;15.78
34807;BMP280;18310;55.586;12.286;2024-03-25T16:02:02;100394.66;;;15.68
34807;BMP280;18310;55.586;12.286;2024-03-25T16:05:04;100394.28;;;15.63
34807;BMP280;18310;55.586;12.286;2024-03-25T16:08:07;100394.72;;;15.54
34807;BMP280;18310;55.586;12.286;2024-03-25T16:11:14;100395.88;;;15.50
34807;BMP280;18310;55.586;12.286;2024-03-25T16:14:16;100391.16;;;15.47
34807;BMP280;18310;55.586;12.286;2024-03-25T16:17:17;100393.09;;;15.46
34807;BMP280;18310;55.586;12.286;2024-03-25T16:20:18;100386.88;;;15.46
34807;BMP280;18310;55.586;12.286;2024-03-25T16:23:20;100388.81;;;15.45
34807;BMP280;18310;55.586;12.286;2024-03-25T16:26:22;100397.84;;;15.42
34807;BMP280;18310;55.586;12.286;2024-03-25T16:29:23;100384.91;;;15.42
34807;BMP280;18310;55.586;12.286;2024-03-25T16:32:33;100389.19;;;15.47
34807;BMP280;18310;55.586;12.286;2024-03-25T16:35:34;100379.03;;;15.55
34807;BMP280;18310;55.586;12.286;2024-03-25T16:38:36;100380.19;;;15.61
34807;BMP280;18310;55.586;12.286;2024-03-25T16:41:38;100383.72;;;15.65
34807;BMP280;18310;55.586;12.286;2024-03-25T16:44:39;100388.03;;;15.66
34807;BMP280;18310;55.586;12.286;2024-03-25T16:47:40;100393.53;;;15.66
34807;BMP280;18310;55.586;12.286;2024-03-25T16:50:41;100395.44;;;15.69
34807;BMP280;18310;55.586;12.286;2024-03-25T16:53:44;100391.94;;;15.72
34807;BMP280;18310;55.586;12.286;2024-03-25T16:56:45;100400.16;;;15.68
34807;BMP280;18310;55.586;12.286;2024-03-25T16:59:46;100395.47;;;15.65
34807;BMP280;18310;55.586;12.286;2024-03-25T17:02:47;100387.63;;;15.57